sensor_id;sensor_type;location;lat;lon;timestamp;P1;durP1;ratioP1;P2;durP2;ratioP2
66721;SDS011;53633;49.932;10.884;2023-07-16T00:00:42;11.10;;;5.10;;
66721;SDS011;53633;49.932;10.884;2023-07-16T00:03:10;11.27;;;5.55;;
66721;SDS011;53633;49.932;10.884;2023-07-16T00:05:37;9.88;;;5.20;;
66721;SDS011;53633;49.932;10.884;2023-07-16T00:08:04;9.60;;;4.88;;
66721;SDS011;53633;49.932;10.884;2023-07-16T00:10:32;11.37;;;5.47;;
66721;SDS011;53633;49.932;10.884;2023-07-16T00:13:00;9.98;;;5.40;;
66721;SDS011;53633;49.932;10.884;2023-07-16T00:15:27;10.15;;;5.30;;
66721;SDS011;53633;49.932;10.884;2023-07-16T00:17:53;10.20;;;5.15;;
66721;SDS011;53633;49.932;10.884;2023-07-16T00:20:22;8.65;;;5.18;;
66721;SDS011;53633;49.932;10.884;2023-07-16T00:22:48;10.40;;;5.13;;
66721;SDS011;53633;49.932;10.884;2023-07-16T00:25:15;9.45;;;4.47;;
66721;SDS011;53633;49.932;10.884;2023-07-16T00:27:42;8.85;;;4.53;;
66721;SDS011;53633;49.932;10.884;2023-07-16T00:30:09;9.38;;;4.75;;
66721;SDS011;53633;49.932;10.884;2023-07-16T00:32:36;8.52;;;5.00;;
66721;SDS011;53633;49.932;10.884;2023-07-16T00:35:03;12.33;;;5.07;;
66721;SDS011;53633;49.932;10.884;2023-07-16T00:37:32;9.38;;;4.13;;
66721;SDS011;53633;49.932;10.884;2023-07-16T00:39:59;9.25;;;5.03;;
66721;SDS011;53633;49.932;10.884;2023-07-16T00:42:26;9.48;;;4.90;;
66721;SDS011;53633;49.932;10.884;2023-07-16T00:44:53;8.00;;;4.65;;
66721;SDS011;53633;49.932;10.884;2023-07-16T00:47:19;9.37;;;4.60;;
66721;SDS011;53633;49.932;10.884;2023-07-16T00:49:47;9.35;;;4.07;;
66721;SDS011;53633;49.932;10.884;2023-07-16T00:52:16;10.75;;;5.10;;
66721;SDS011;53633;49.932;10.884;2023-07-16T00:54:46;10.80;;;4.60;;
66721;SDS011;53633;49.932;10.884;2023-07-16T00:57:13;9.38;;;4.93;;
66721;SDS011;53633;49.932;10.884;2023-07-16T00:59:40;10.00;;;4.50;;
66721;SDS011;53633;49.932;10.884;2023-07-16T01:02:07;10.27;;;5.13;;
66721;SDS011;53633;49.932;10.884;2023-07-16T01:04:34;9.80;;;4.80;;
66721;SDS011;53633;49.932;10.884;2023-07-16T01:07:01;9.00;;;4.57;;
66721;SDS011;53633;49.932;10.884;2023-07-16T01:09:32;9.23;;;4.95;;
66721;SDS011;53633;49.932;10.884;2023-07-16T01:12:02;8.37;;;3.83;;
66721;SDS011;53633;49.932;10.884;2023-07-16T01:14:31;9.70;;;4.38;;
66721;SDS011;53633;49.932;10.884;2023-07-16T01:16:58;8.43;;;4.18;;
66721;SDS011;53633;49.932;10.884;2023-07-16T01:19:28;8.02;;;3.78;;
66721;SDS011;53633;49.932;10.884;2023-07-16T01:21:57;7.15;;;3.85;;
66721;SDS011;53633;49.932;10.884;2023-07-16T01:24:53;8.30;;;3.73;;
66721;SDS011;53633;49.932;10.884;2023-07-16T01:27:42;7.28;;;3.28;;
66721;SDS011;53633;49.932;10.884;2023-07-16T01:30:28;9.48;;;4.10;;
66721;SDS011;53633;49.932;10.884;2023-07-16T01:32:55;8.50;;;3.83;;
66721;SDS011;53633;49.932;10.884;2023-07-16T01:35:23;7.85;;;4.03;;
66721;SDS011;53633;49.932;10.884;2023-07-16T01:37:50;8.23;;;4.27;;
66721;SDS011;53633;49.932;10.884;2023-07-16T01:40:17;9.90;;;3.70;;
66721;SDS011;53633;49.932;10.884;2023-07-16T01:42:43;8.88;;;4.55;;
66721;SDS011;53633;49.932;10.884;2023-07-16T01:45:10;8.38;;;3.40;;
66721;SDS011;53633;49.932;10.884;2023-07-16T01:47:44;10.55;;;3.97;;
66721;SDS011;53633;49.932;10.884;2023-07-16T01:50:18;7.63;;;3.93;;
66721;SDS011;53633;49.932;10.884;2023-07-16T01:52:45;7.03;;;3.47;;
66721;SDS011;53633;49.932;10.884;2023-07-16T01:55:11;8.50;;;3.72;;
66721;SDS011;53633;49.932;10.884;2023-07-16T01:57:38;8.52;;;3.95;;
66721;SDS011;53633;49.932;10.884;2023-07-16T02:00:05;7.72;;;3.78;;
66721;SDS011;53633;49.932;10.884;2023-07-16T02:02:33;10.47;;;3.83;;
66721;SDS011;53633;49.932;10.884;2023-07-16T02:05:01;8.02;;;4.00;;
66721;SDS011;53633;49.932;10.884;2023-07-16T02:07:28;9.65;;;4.20;;
66721;SDS011;53633;49.932;10.884;2023-07-16T02:09:55;7.85;;;3.92;;
66721;SDS011;53633;49.932;10.884;2023-07-16T02:12:21;7.00;;;3.72;;
66721;SDS011;53633;49.932;10.884;2023-07-16T02:14:48;7.87;;;4.00;;
66721;SDS011;53633;49.932;10.884;2023-07-16T02:17:14;7.38;;;3.78;;
66721;SDS011;53633;49.932;10.884;2023-07-16T02:19:41;8.05;;;4.10;;
66721;SDS011;53633;49.932;10.884;2023-07-16T02:22:09;9.57;;;3.63;;
66721;SDS011;53633;49.932;10.884;2023-07-16T02:24:36;8.98;;;4.32;;
66721;SDS011;53633;49.932;10.884;2023-07-16T02:27:03;7.70;;;3.90;;
66721;SDS011;53633;49.932;10.884;2023-07-16T02:29:31;7.80;;;4.00;;
66721;SDS011;53633;49.932;10.884;2023-07-16T02:31:58;8.07;;;4.40;;
66721;SDS011;53633;49.932;10.884;2023-07-16T02:34:24;9.10;;;4.20;;
66721;SDS011;53633;49.932;10.884;2023-07-16T02:36:51;7.75;;;3.90;;
66721;SDS011;53633;49.932;10.884;2023-07-16T02:39:19;8.43;;;4.30;;
66721;SDS011;53633;49.932;10.884;2023-07-16T02:41:46;8.82;;;4.00;;
66721;SDS011;53633;49.932;10.884;2023-07-16T02:44:12;8.70;;;4.00;;
66721;SDS011;53633;49.932;10.884;2023-07-16T02:46:39;8.20;;;3.60;;
66721;SDS011;53633;49.932;10.884;2023-07-16T02:49:05;7.30;;;3.33;;
66721;SDS011;53633;49.932;10.884;2023-07-16T02:51:32;5.70;;;2.93;;
66721;SDS011;53633;49.932;10.884;2023-07-16T02:53:59;6.60;;;3.20;;
66721;SDS011;53633;49.932;10.884;2023-07-16T02:56:27;6.30;;;3.05;;
66721;SDS011;53633;49.932;10.884;2023-07-16T02:58:53;6.28;;;2.22;;
66721;SDS011;53633;49.932;10.884;2023-07-16T03:01:20;7.35;;;2.83;;
66721;SDS011;53633;49.932;10.884;2023-07-16T03:03:47;7.20;;;2.80;;
66721;SDS011;53633;49.932;10.884;2023-07-16T03:06:14;6.63;;;2.60;;
66721;SDS011;53633;49.932;10.884;2023-07-16T03:08:43;6.90;;;2.90;;
66721;SDS011;53633;49.932;10.884;2023-07-16T03:11:10;7.57;;;2.78;;
66721;SDS011;53633;49.932;10.884;2023-07-16T03:13:38;6.32;;;2.38;;
66721;SDS011;53633;49.932;10.884;2023-07-16T03:16:05;6.80;;;2.80;;
66721;SDS011;53633;49.932;10.884;2023-07-16T03:18:31;7.03;;;2.42;;
66721;SDS011;53633;49.932;10.884;2023-07-16T03:20:59;6.45;;;2.60;;
66721;SDS011;53633;49.932;10.884;2023-07-16T03:23:25;5.75;;;2.10;;
66721;SDS011;53633;49.932;10.884;2023-07-16T03:25:52;4.70;;;2.40;;
66721;SDS011;53633;49.932;10.884;2023-07-16T03:28:19;4.87;;;1.80;;
66721;SDS011;53633;49.932;10.884;2023-07-16T03:30:47;5.25;;;2.00;;
66721;SDS011;53633;49.932;10.884;2023-07-16T03:33:15;6.78;;;1.83;;
66721;SDS011;53633;49.932;10.884;2023-07-16T03:35:42;5.30;;;1.88;;
66721;SDS011;53633;49.932;10.884;2023-07-16T03:38:09;5.82;;;1.92;;
66721;SDS011;53633;49.932;10.884;2023-07-16T03:40:36;5.07;;;1.30;;
66721;SDS011;53633;49.932;10.884;2023-07-16T03:43:03;5.47;;;1.42;;
66721;SDS011;53633;49.932;10.884;2023-07-16T03:45:29;4.47;;;1.40;;
66721;SDS011;53633;49.932;10.884;2023-07-16T03:47:57;5.40;;;1.38;;
66721;SDS011;53633;49.932;10.884;2023-07-16T03:50:24;4.75;;;1.40;;
66721;SDS011;53633;49.932;10.884;2023-07-16T03:52:51;3.87;;;1.40;;
66721;SDS011;53633;49.932;10.884;2023-07-16T03:55:18;3.33;;;1.23;;
66721;SDS011;53633;49.932;10.884;2023-07-16T03:57:44;4.82;;;1.67;;
66721;SDS011;53633;49.932;10.884;2023-07-16T04:00:11;3.03;;;1.10;;
66721;SDS011;53633;49.932;10.884;2023-07-16T04:02:38;3.72;;;1.30;;
66721;SDS011;53633;49.932;10.884;2023-07-16T04:05:06;3.40;;;1.00;;
66721;SDS011;53633;49.932;10.884;2023-07-16T04:07:34;5.03;;;1.20;;
66721;SDS011;53633;49.932;10.884;2023-07-16T04:10:01;8.63;;;1.52;;
66721;SDS011;53633;49.932;10.884;2023-07-16T04:12:27;5.25;;;1.40;;
66721;SDS011;53633;49.932;10.884;2023-07-16T04:14:55;4.90;;;1.30;;
66721;SDS011;53633;49.932;10.884;2023-07-16T04:17:23;4.30;;;1.13;;
66721;SDS011;53633;49.932;10.884;2023-07-16T04:19:50;4.78;;;1.30;;
66721;SDS011;53633;49.932;10.884;2023-07-16T04:22:18;4.00;;;1.30;;
66721;SDS011;53633;49.932;10.884;2023-07-16T04:24:44;3.05;;;0.90;;
66721;SDS011;53633;49.932;10.884;2023-07-16T04:27:11;3.60;;;1.30;;
66721;SDS011;53633;49.932;10.884;2023-07-16T04:29:38;3.63;;;1.10;;
66721;SDS011;53633;49.932;10.884;2023-07-16T04:32:05;4.10;;;1.30;;
66721;SDS011;53633;49.932;10.884;2023-07-16T04:34:31;3.25;;;1.30;;
66721;SDS011;53633;49.932;10.884;2023-07-16T04:36:58;4.95;;;1.10;;
66721;SDS011;53633;49.932;10.884;2023-07-16T04:39:26;5.55;;;1.25;;
66721;SDS011;53633;49.932;10.884;2023-07-16T04:41:53;3.93;;;1.20;;
66721;SDS011;53633;49.932;10.884;2023-07-16T04:44:19;4.13;;;1.50;;
66721;SDS011;53633;49.932;10.884;2023-07-16T04:46:46;3.55;;;1.20;;
66721;SDS011;53633;49.932;10.884;2023-07-16T04:49:13;3.55;;;1.30;;
66721;SDS011;53633;49.932;10.884;2023-07-16T04:51:39;4.93;;;1.23;;
66721;SDS011;53633;49.932;10.884;2023-07-16T04:54:06;6.40;;;1.63;;
66721;SDS011;53633;49.932;10.884;2023-07-16T04:56:34;2.88;;;1.17;;
66721;SDS011;53633;49.932;10.884;2023-07-16T04:59:01;4.03;;;1.42;;
66721;SDS011;53633;49.932;10.884;2023-07-16T05:01:27;4.63;;;1.42;;
66721;SDS011;53633;49.932;10.884;2023-07-16T05:03:54;3.05;;;1.23;;
66721;SDS011;53633;49.932;10.884;2023-07-16T05:06:21;3.63;;;1.13;;
66721;SDS011;53633;49.932;10.884;2023-07-16T05:08:47;4.30;;;1.27;;
66721;SDS011;53633;49.932;10.884;2023-07-16T05:11:14;3.92;;;1.10;;
66721;SDS011;53633;49.932;10.884;2023-07-16T05:13:42;3.80;;;1.05;;
66721;SDS011;53633;49.932;10.884;2023-07-16T05:16:09;3.58;;;1.17;;
66721;SDS011;53633;49.932;10.884;2023-07-16T05:18:35;4.57;;;1.63;;
66721;SDS011;53633;49.932;10.884;2023-07-16T05:21:02;6.93;;;1.20;;
66721;SDS011;53633;49.932;10.884;2023-07-16T05:23:29;4.43;;;1.45;;
66721;SDS011;53633;49.932;10.884;2023-07-16T05:25:55;3.13;;;1.02;;
66721;SDS011;53633;49.932;10.884;2023-07-16T05:28:22;5.30;;;1.60;;
66721;SDS011;53633;49.932;10.884;2023-07-16T05:30:58;4.27;;;0.80;;
66721;SDS011;53633;49.932;10.884;2023-07-16T05:33:25;5.07;;;1.50;;
66721;SDS011;53633;49.932;10.884;2023-07-16T05:35:51;6.35;;;1.30;;
66721;SDS011;53633;49.932;10.884;2023-07-16T05:38:18;3.42;;;1.05;;
66721;SDS011;53633;49.932;10.884;2023-07-16T05:40:45;4.53;;;1.10;;
66721;SDS011;53633;49.932;10.884;2023-07-16T05:43:11;3.70;;;1.00;;
66721;SDS011;53633;49.932;10.884;2023-07-16T05:45:38;4.57;;;1.30;;
66721;SDS011;53633;49.932;10.884;2023-07-16T05:48:06;4.05;;;1.35;;
66721;SDS011;53633;49.932;10.884;2023-07-16T05:50:33;6.22;;;1.90;;
66721;SDS011;53633;49.932;10.884;2023-07-16T05:53:00;7.95;;;1.42;;
66721;SDS011;53633;49.932;10.884;2023-07-16T05:55:27;4.73;;;1.60;;
66721;SDS011;53633;49.932;10.884;2023-07-16T05:57:53;5.38;;;2.00;;
66721;SDS011;53633;49.932;10.884;2023-07-16T06:00:20;6.40;;;1.50;;
66721;SDS011;53633;49.932;10.884;2023-07-16T06:02:47;5.22;;;1.85;;
66721;SDS011;53633;49.932;10.884;2023-07-16T06:05:15;5.53;;;2.00;;
66721;SDS011;53633;49.932;10.884;2023-07-16T06:07:41;8.17;;;1.70;;
66721;SDS011;53633;49.932;10.884;2023-07-16T06:10:08;6.07;;;1.50;;
66721;SDS011;53633;49.932;10.884;2023-07-16T06:12:35;4.35;;;1.73;;
66721;SDS011;53633;49.932;10.884;2023-07-16T06:15:02;4.70;;;1.30;;
66721;SDS011;53633;49.932;10.884;2023-07-16T06:17:29;5.88;;;1.80;;
66721;SDS011;53633;49.932;10.884;2023-07-16T06:19:56;7.50;;;2.10;;
66721;SDS011;53633;49.932;10.884;2023-07-16T06:22:24;3.85;;;1.60;;
66721;SDS011;53633;49.932;10.884;2023-07-16T06:24:51;7.63;;;2.10;;
66721;SDS011;53633;49.932;10.884;2023-07-16T06:27:17;3.90;;;1.23;;
66721;SDS011;53633;49.932;10.884;2023-07-16T06:29:44;7.43;;;1.73;;
66721;SDS011;53633;49.932;10.884;2023-07-16T06:32:11;8.93;;;1.60;;
66721;SDS011;53633;49.932;10.884;2023-07-16T06:34:37;6.13;;;1.52;;
66721;SDS011;53633;49.932;10.884;2023-07-16T06:37:04;7.07;;;1.40;;
66721;SDS011;53633;49.932;10.884;2023-07-16T06:39:33;5.22;;;1.25;;
66721;SDS011;53633;49.932;10.884;2023-07-16T06:42:00;4.90;;;1.65;;
66721;SDS011;53633;49.932;10.884;2023-07-16T06:44:27;6.80;;;1.63;;
66721;SDS011;53633;49.932;10.884;2023-07-16T06:46:53;5.18;;;1.50;;
66721;SDS011;53633;49.932;10.884;2023-07-16T06:49:21;7.80;;;1.35;;
66721;SDS011;53633;49.932;10.884;2023-07-16T06:51:48;6.70;;;1.70;;
66721;SDS011;53633;49.932;10.884;2023-07-16T06:54:14;4.60;;;1.73;;
66721;SDS011;53633;49.932;10.884;2023-07-16T06:56:42;4.60;;;1.33;;
66721;SDS011;53633;49.932;10.884;2023-07-16T06:59:09;6.32;;;1.30;;
66721;SDS011;53633;49.932;10.884;2023-07-16T07:01:36;4.55;;;1.77;;
66721;SDS011;53633;49.932;10.884;2023-07-16T07:04:03;6.20;;;1.50;;
66721;SDS011;53633;49.932;10.884;2023-07-16T07:06:30;5.07;;;1.60;;
66721;SDS011;53633;49.932;10.884;2023-07-16T07:08:56;5.50;;;1.53;;
66721;SDS011;53633;49.932;10.884;2023-07-16T07:11:23;5.10;;;1.90;;
66721;SDS011;53633;49.932;10.884;2023-07-16T07:13:51;5.80;;;1.85;;
66721;SDS011;53633;49.932;10.884;2023-07-16T07:16:18;6.35;;;1.50;;
66721;SDS011;53633;49.932;10.884;2023-07-16T07:18:45;6.55;;;1.80;;
66721;SDS011;53633;49.932;10.884;2023-07-16T07:21:11;7.07;;;1.63;;
66721;SDS011;53633;49.932;10.884;2023-07-16T07:23:38;4.63;;;1.60;;
66721;SDS011;53633;49.932;10.884;2023-07-16T07:26:05;6.07;;;1.52;;
66721;SDS011;53633;49.932;10.884;2023-07-16T07:28:32;8.10;;;1.77;;
66721;SDS011;53633;49.932;10.884;2023-07-16T07:31:00;7.13;;;1.50;;
66721;SDS011;53633;49.932;10.884;2023-07-16T07:33:27;6.60;;;1.50;;
66721;SDS011;53633;49.932;10.884;2023-07-16T07:35:54;6.95;;;1.70;;
66721;SDS011;53633;49.932;10.884;2023-07-16T07:38:20;6.03;;;1.55;;
66721;SDS011;53633;49.932;10.884;2023-07-16T07:40:47;5.43;;;1.40;;
66721;SDS011;53633;49.932;10.884;2023-07-16T07:43:14;5.75;;;1.35;;
66721;SDS011;53633;49.932;10.884;2023-07-16T07:45:40;6.73;;;1.87;;
66721;SDS011;53633;49.932;10.884;2023-07-16T07:48:09;5.18;;;1.65;;
66721;SDS011;53633;49.932;10.884;2023-07-16T07:50:35;5.57;;;1.90;;
66721;SDS011;53633;49.932;10.884;2023-07-16T07:53:02;5.22;;;1.52;;
66721;SDS011;53633;49.932;10.884;2023-07-16T07:55:29;5.50;;;1.30;;
66721;SDS011;53633;49.932;10.884;2023-07-16T07:57:56;6.77;;;1.47;;
66721;SDS011;53633;49.932;10.884;2023-07-16T08:00:22;7.00;;;1.73;;
66721;SDS011;53633;49.932;10.884;2023-07-16T08:02:49;7.13;;;1.38;;
66721;SDS011;53633;49.932;10.884;2023-07-16T08:05:18;5.97;;;1.33;;
66721;SDS011;53633;49.932;10.884;2023-07-16T08:07:45;5.97;;;1.30;;
66721;SDS011;53633;49.932;10.884;2023-07-16T08:10:11;4.97;;;1.23;;
66721;SDS011;53633;49.932;10.884;2023-07-16T08:12:38;3.53;;;1.42;;
66721;SDS011;53633;49.932;10.884;2023-07-16T08:15:06;4.63;;;1.42;;
66721;SDS011;53633;49.932;10.884;2023-07-16T08:17:33;5.60;;;1.70;;
66721;SDS011;53633;49.932;10.884;2023-07-16T08:20:00;5.07;;;1.27;;
66721;SDS011;53633;49.932;10.884;2023-07-16T08:22:28;4.73;;;1.50;;
66721;SDS011;53633;49.932;10.884;2023-07-16T08:24:54;7.15;;;1.60;;
66721;SDS011;53633;49.932;10.884;2023-07-16T08:27:21;6.05;;;1.55;;
66721;SDS011;53633;49.932;10.884;2023-07-16T08:29:48;8.10;;;1.58;;
66721;SDS011;53633;49.932;10.884;2023-07-16T08:32:14;6.05;;;1.70;;
66721;SDS011;53633;49.932;10.884;2023-07-16T08:34:41;5.77;;;1.50;;
66721;SDS011;53633;49.932;10.884;2023-07-16T08:37:08;6.03;;;1.45;;
66721;SDS011;53633;49.932;10.884;2023-07-16T08:39:36;5.15;;;1.55;;
66721;SDS011;53633;49.932;10.884;2023-07-16T08:42:02;7.80;;;1.58;;
66721;SDS011;53633;49.932;10.884;2023-07-16T08:44:30;7.75;;;2.03;;
66721;SDS011;53633;49.932;10.884;2023-07-16T08:46:57;8.93;;;2.17;;
66721;SDS011;53633;49.932;10.884;2023-07-16T08:49:24;6.75;;;1.70;;
66721;SDS011;53633;49.932;10.884;2023-07-16T08:51:51;7.82;;;1.92;;
66721;SDS011;53633;49.932;10.884;2023-07-16T08:54:20;7.43;;;1.38;;
66721;SDS011;53633;49.932;10.884;2023-07-16T08:56:49;4.55;;;1.88;;
66721;SDS011;53633;49.932;10.884;2023-07-16T08:59:17;5.57;;;1.50;;
66721;SDS011;53633;49.932;10.884;2023-07-16T09:01:44;6.90;;;2.00;;
66721;SDS011;53633;49.932;10.884;2023-07-16T09:04:13;6.05;;;2.20;;
66721;SDS011;53633;49.932;10.884;2023-07-16T09:06:40;3.58;;;1.30;;
66721;SDS011;53633;49.932;10.884;2023-07-16T09:09:07;4.97;;;1.98;;
66721;SDS011;53633;49.932;10.884;2023-07-16T09:11:34;5.47;;;1.50;;
66721;SDS011;53633;49.932;10.884;2023-07-16T09:14:02;5.47;;;1.45;;
66721;SDS011;53633;49.932;10.884;2023-07-16T09:16:32;6.13;;;1.85;;
66721;SDS011;53633;49.932;10.884;2023-07-16T09:19:05;5.20;;;1.65;;
66721;SDS011;53633;49.932;10.884;2023-07-16T09:21:32;6.22;;;2.08;;
66721;SDS011;53633;49.932;10.884;2023-07-16T09:23:58;4.83;;;1.97;;
66721;SDS011;53633;49.932;10.884;2023-07-16T09:26:25;5.72;;;1.85;;
66721;SDS011;53633;49.932;10.884;2023-07-16T09:28:52;6.10;;;1.75;;
66721;SDS011;53633;49.932;10.884;2023-07-16T09:31:20;5.65;;;1.85;;
66721;SDS011;53633;49.932;10.884;2023-07-16T09:33:47;4.75;;;1.38;;
66721;SDS011;53633;49.932;10.884;2023-07-16T09:36:13;4.30;;;1.47;;
66721;SDS011;53633;49.932;10.884;2023-07-16T09:38:49;5.10;;;1.85;;
66721;SDS011;53633;49.932;10.884;2023-07-16T09:41:17;5.18;;;1.98;;
66721;SDS011;53633;49.932;10.884;2023-07-16T09:43:44;6.03;;;1.70;;
66721;SDS011;53633;49.932;10.884;2023-07-16T09:46:12;7.70;;;1.85;;
66721;SDS011;53633;49.932;10.884;2023-07-16T09:48:40;5.77;;;1.43;;
66721;SDS011;53633;49.932;10.884;2023-07-16T09:51:07;5.00;;;1.30;;
66721;SDS011;53633;49.932;10.884;2023-07-16T09:53:37;6.57;;;1.48;;
66721;SDS011;53633;49.932;10.884;2023-07-16T09:56:08;6.75;;;2.03;;
66721;SDS011;53633;49.932;10.884;2023-07-16T09:58:38;7.07;;;1.40;;
66721;SDS011;53633;49.932;10.884;2023-07-16T10:01:06;5.73;;;1.43;;
66721;SDS011;53633;49.932;10.884;2023-07-16T10:03:34;8.18;;;1.75;;
66721;SDS011;53633;49.932;10.884;2023-07-16T10:06:08;9.52;;;2.17;;
66721;SDS011;53633;49.932;10.884;2023-07-16T10:08:35;6.82;;;1.45;;
66721;SDS011;53633;49.932;10.884;2023-07-16T10:11:01;5.30;;;1.60;;
66721;SDS011;53633;49.932;10.884;2023-07-16T10:13:28;7.23;;;1.60;;
66721;SDS011;53633;49.932;10.884;2023-07-16T10:15:55;6.72;;;1.63;;
66721;SDS011;53633;49.932;10.884;2023-07-16T10:18:25;6.43;;;1.70;;
66721;SDS011;53633;49.932;10.884;2023-07-16T10:20:53;5.18;;;1.40;;
66721;SDS011;53633;49.932;10.884;2023-07-16T10:23:23;5.95;;;1.50;;
66721;SDS011;53633;49.932;10.884;2023-07-16T10:25:59;4.27;;;1.30;;
66721;SDS011;53633;49.932;10.884;2023-07-16T10:28:27;4.95;;;1.35;;
66721;SDS011;53633;49.932;10.884;2023-07-16T10:30:54;4.18;;;1.33;;
66721;SDS011;53633;49.932;10.884;2023-07-16T10:33:21;7.53;;;2.17;;
66721;SDS011;53633;49.932;10.884;2023-07-16T10:35:47;5.68;;;1.63;;
66721;SDS011;53633;49.932;10.884;2023-07-16T10:38:14;7.20;;;1.67;;
66721;SDS011;53633;49.932;10.884;2023-07-16T10:40:44;6.22;;;1.88;;
66721;SDS011;53633;49.932;10.884;2023-07-16T10:43:12;6.47;;;1.60;;
66721;SDS011;53633;49.932;10.884;2023-07-16T10:45:39;5.70;;;1.60;;
66721;SDS011;53633;49.932;10.884;2023-07-16T10:48:05;5.03;;;1.70;;
66721;SDS011;53633;49.932;10.884;2023-07-16T10:50:32;4.67;;;1.40;;
66721;SDS011;53633;49.932;10.884;2023-07-16T10:52:59;7.28;;;1.30;;
66721;SDS011;53633;49.932;10.884;2023-07-16T10:55:27;4.43;;;1.55;;
66721;SDS011;53633;49.932;10.884;2023-07-16T10:57:56;5.97;;;1.40;;
66721;SDS011;53633;49.932;10.884;2023-07-16T11:00:22;5.85;;;1.70;;
66721;SDS011;53633;49.932;10.884;2023-07-16T11:02:49;6.10;;;1.40;;
66721;SDS011;53633;49.932;10.884;2023-07-16T11:05:17;9.00;;;1.52;;
66721;SDS011;53633;49.932;10.884;2023-07-16T11:07:44;5.35;;;1.50;;
66721;SDS011;53633;49.932;10.884;2023-07-16T11:10:17;5.47;;;1.40;;
66721;SDS011;53633;49.932;10.884;2023-07-16T11:12:44;7.18;;;1.88;;
66721;SDS011;53633;49.932;10.884;2023-07-16T11:15:17;6.47;;;1.87;;
66721;SDS011;53633;49.932;10.884;2023-07-16T11:17:48;4.32;;;1.50;;
66721;SDS011;53633;49.932;10.884;2023-07-16T11:20:15;6.47;;;1.50;;
66721;SDS011;53633;49.932;10.884;2023-07-16T11:22:42;4.60;;;1.67;;
66721;SDS011;53633;49.932;10.884;2023-07-16T11:25:11;4.65;;;1.58;;
66721;SDS011;53633;49.932;10.884;2023-07-16T11:27:40;5.27;;;1.70;;
66721;SDS011;53633;49.932;10.884;2023-07-16T11:30:08;5.32;;;1.90;;
66721;SDS011;53633;49.932;10.884;2023-07-16T11:32:37;4.95;;;1.50;;
66721;SDS011;53633;49.932;10.884;2023-07-16T11:35:08;5.57;;;1.67;;
66721;SDS011;53633;49.932;10.884;2023-07-16T11:37:37;5.88;;;1.80;;
66721;SDS011;53633;49.932;10.884;2023-07-16T11:40:04;6.50;;;1.40;;
66721;SDS011;53633;49.932;10.884;2023-07-16T11:42:33;7.53;;;2.33;;
66721;SDS011;53633;49.932;10.884;2023-07-16T11:45:01;7.43;;;1.83;;
66721;SDS011;53633;49.932;10.884;2023-07-16T11:47:28;5.13;;;1.60;;
66721;SDS011;53633;49.932;10.884;2023-07-16T11:49:57;6.97;;;1.67;;
66721;SDS011;53633;49.932;10.884;2023-07-16T11:52:25;7.13;;;1.93;;
66721;SDS011;53633;49.932;10.884;2023-07-16T11:54:53;5.28;;;1.55;;
66721;SDS011;53633;49.932;10.884;2023-07-16T11:57:20;5.18;;;1.60;;
66721;SDS011;53633;49.932;10.884;2023-07-16T11:59:47;6.28;;;1.38;;
66721;SDS011;53633;49.932;10.884;2023-07-16T12:02:14;5.18;;;1.77;;
66721;SDS011;53633;49.932;10.884;2023-07-16T12:04:41;7.97;;;2.60;;
66721;SDS011;53633;49.932;10.884;2023-07-16T12:07:09;7.38;;;2.20;;
66721;SDS011;53633;49.932;10.884;2023-07-16T12:09:36;5.30;;;1.77;;
66721;SDS011;53633;49.932;10.884;2023-07-16T12:12:03;5.60;;;1.60;;
66721;SDS011;53633;49.932;10.884;2023-07-16T12:14:30;5.93;;;1.73;;
66721;SDS011;53633;49.932;10.884;2023-07-16T12:16:57;6.33;;;1.80;;
66721;SDS011;53633;49.932;10.884;2023-07-16T12:19:24;8.27;;;2.78;;
66721;SDS011;53633;49.932;10.884;2023-07-16T12:21:51;5.68;;;1.85;;
66721;SDS011;53633;49.932;10.884;2023-07-16T12:24:21;5.63;;;1.88;;
66721;SDS011;53633;49.932;10.884;2023-07-16T12:26:48;5.80;;;1.80;;
66721;SDS011;53633;49.932;10.884;2023-07-16T12:29:14;5.97;;;1.60;;
66721;SDS011;53633;49.932;10.884;2023-07-16T12:31:41;5.63;;;1.98;;
66721;SDS011;53633;49.932;10.884;2023-07-16T12:34:08;5.72;;;1.70;;
66721;SDS011;53633;49.932;10.884;2023-07-16T12:36:34;6.45;;;1.67;;
66721;SDS011;53633;49.932;10.884;2023-07-16T12:39:01;6.45;;;2.13;;
66721;SDS011;53633;49.932;10.884;2023-07-16T12:41:29;5.23;;;1.83;;
66721;SDS011;53633;49.932;10.884;2023-07-16T12:43:56;7.03;;;2.03;;
66721;SDS011;53633;49.932;10.884;2023-07-16T12:46:23;4.72;;;1.88;;
66721;SDS011;53633;49.932;10.884;2023-07-16T12:48:49;4.57;;;1.42;;
66721;SDS011;53633;49.932;10.884;2023-07-16T12:51:16;7.25;;;2.70;;
66721;SDS011;53633;49.932;10.884;2023-07-16T12:53:43;6.10;;;1.80;;
66721;SDS011;53633;49.932;10.884;2023-07-16T12:56:09;7.05;;;1.70;;
66721;SDS011;53633;49.932;10.884;2023-07-16T12:58:37;5.75;;;1.63;;
66721;SDS011;53633;49.932;10.884;2023-07-16T13:01:04;6.93;;;1.60;;
66721;SDS011;53633;49.932;10.884;2023-07-16T13:03:31;6.20;;;1.65;;
66721;SDS011;53633;49.932;10.884;2023-07-16T13:05:57;5.13;;;1.70;;
66721;SDS011;53633;49.932;10.884;2023-07-16T13:08:24;5.10;;;1.67;;
66721;SDS011;53633;49.932;10.884;2023-07-16T13:10:51;8.45;;;2.10;;
66721;SDS011;53633;49.932;10.884;2023-07-16T13:13:17;6.32;;;2.08;;
66721;SDS011;53633;49.932;10.884;2023-07-16T13:15:46;7.70;;;1.65;;
66721;SDS011;53633;49.932;10.884;2023-07-16T13:18:13;4.97;;;1.70;;
66721;SDS011;53633;49.932;10.884;2023-07-16T13:20:40;5.57;;;1.67;;
66721;SDS011;53633;49.932;10.884;2023-07-16T13:23:06;6.68;;;1.70;;
66721;SDS011;53633;49.932;10.884;2023-07-16T13:25:33;4.28;;;1.50;;
66721;SDS011;53633;49.932;10.884;2023-07-16T13:28:00;6.53;;;1.60;;
66721;SDS011;53633;49.932;10.884;2023-07-16T13:30:27;6.50;;;2.03;;
66721;SDS011;53633;49.932;10.884;2023-07-16T13:32:56;5.22;;;1.70;;
66721;SDS011;53633;49.932;10.884;2023-07-16T13:35:22;5.00;;;2.00;;
66721;SDS011;53633;49.932;10.884;2023-07-16T13:37:49;4.40;;;1.40;;
66721;SDS011;53633;49.932;10.884;2023-07-16T13:40:16;5.38;;;1.90;;
66721;SDS011;53633;49.932;10.884;2023-07-16T13:42:43;5.03;;;1.63;;
66721;SDS011;53633;49.932;10.884;2023-07-16T13:45:10;6.90;;;1.80;;
66721;SDS011;53633;49.932;10.884;2023-07-16T13:47:36;6.50;;;1.77;;
66721;SDS011;53633;49.932;10.884;2023-07-16T13:50:06;6.70;;;1.88;;
66721;SDS011;53633;49.932;10.884;2023-07-16T13:52:33;5.28;;;1.67;;
66721;SDS011;53633;49.932;10.884;2023-07-16T13:55:00;5.07;;;1.70;;
66721;SDS011;53633;49.932;10.884;2023-07-16T13:57:27;7.70;;;1.80;;
66721;SDS011;53633;49.932;10.884;2023-07-16T13:59:53;4.95;;;1.50;;
66721;SDS011;53633;49.932;10.884;2023-07-16T14:02:20;5.65;;;1.63;;
66721;SDS011;53633;49.932;10.884;2023-07-16T14:04:47;6.43;;;2.00;;
66721;SDS011;53633;49.932;10.884;2023-07-16T14:07:15;5.60;;;1.80;;
66721;SDS011;53633;49.932;10.884;2023-07-16T14:09:42;7.57;;;1.90;;
66721;SDS011;53633;49.932;10.884;2023-07-16T14:12:08;6.35;;;1.90;;
66721;SDS011;53633;49.932;10.884;2023-07-16T14:14:35;7.18;;;1.65;;
66721;SDS011;53633;49.932;10.884;2023-07-16T14:17:02;5.82;;;1.83;;
66721;SDS011;53633;49.932;10.884;2023-07-16T14:19:29;5.67;;;1.87;;
66721;SDS011;53633;49.932;10.884;2023-07-16T14:21:56;6.43;;;1.80;;
66721;SDS011;53633;49.932;10.884;2023-07-16T14:24:24;4.70;;;1.80;;
66721;SDS011;53633;49.932;10.884;2023-07-16T14:26:51;6.68;;;1.90;;
66721;SDS011;53633;49.932;10.884;2023-07-16T14:29:17;5.65;;;1.65;;
66721;SDS011;53633;49.932;10.884;2023-07-16T14:31:44;7.90;;;2.27;;
66721;SDS011;53633;49.932;10.884;2023-07-16T14:34:11;5.53;;;1.80;;